createdAt,value
2019-03-01T00:01:24.018Z,5.50
2019-03-01T00:03:28.513Z,5.07
2019-03-01T00:06:01.134Z,4.77
2019-03-01T00:08:12.820Z,4.83
2019-03-01T00:10:31.619Z,4.13
2019-03-01T00:12:44.714Z,4.57
2019-03-01T00:15:23.614Z,4.33
2019-03-01T00:17:36.219Z,4.77
2019-03-01T00:20:04.757Z,4.37
2019-03-01T00:22:29.880Z,5.57
2019-03-01T00:24:55.778Z,5.80
2019-03-01T00:27:11.535Z,5.40
2019-03-01T00:29:39.855Z,5.27
2019-03-01T00:31:46.616Z,5.07
2019-03-01T00:34:08.367Z,5.63
2019-03-01T00:36:33.317Z,4.80
2019-03-01T00:38:51.585Z,4.50
2019-03-01T00:41:21.361Z,5.23
2019-03-01T00:43:40.206Z,5.40
2019-03-01T00:45:43.953Z,5.00
2019-03-01T00:47:48.850Z,5.37
2019-03-01T00:49:52.737Z,5.37
2019-03-01T00:51:56.539Z,5.10
2019-03-01T00:54:00.471Z,4.37
2019-03-01T00:56:04.463Z,4.70
2019-03-01T00:58:08.370Z,5.00
2019-03-01T01:00:17.757Z,5.03
2019-03-01T01:02:21.527Z,4.83
2019-03-01T01:04:25.312Z,4.30
2019-03-01T01:06:29.217Z,4.40
2019-03-01T01:08:33.022Z,3.80
2019-03-01T01:10:37.326Z,4.07
2019-03-01T01:12:41.298Z,4.47
2019-03-01T01:14:45.078Z,3.93
2019-03-01T01:16:48.951Z,4.30
2019-03-01T01:18:53.017Z,4.20
2019-03-01T01:20:56.841Z,4.10
2019-03-01T01:23:00.618Z,4.03
2019-03-01T01:25:04.749Z,4.13
2019-03-01T01:27:08.590Z,4.27
2019-03-01T01:29:12.453Z,4.20
2019-03-01T01:31:16.252Z,4.00
2019-03-01T01:33:20.225Z,4.30
2019-03-01T01:35:25.414Z,3.87
2019-03-01T01:37:29.395Z,4.00
2019-03-01T01:39:33.519Z,4.30
2019-03-01T01:41:37.503Z,4.07
2019-03-01T01:43:41.538Z,4.13
2019-03-01T01:45:45.279Z,4.63
2019-03-01T01:47:49.216Z,4.47
2019-03-01T01:49:52.997Z,3.63
2019-03-01T01:51:56.681Z,4.47
2019-03-01T01:54:00.509Z,4.83
2019-03-01T01:56:04.418Z,5.03
2019-03-01T01:58:08.607Z,4.00
2019-03-01T02:00:13.782Z,4.00
2019-03-01T02:02:17.659Z,3.90
2019-03-01T02:04:21.764Z,3.90
2019-03-01T02:06:26.280Z,4.47
2019-03-01T02:08:30.086Z,4.67
2019-03-01T02:10:33.849Z,3.57
2019-03-01T02:12:37.790Z,4.00
2019-03-01T02:14:41.694Z,3.20
2019-03-01T02:16:45.655Z,3.80
2019-03-01T02:18:57.432Z,3.53
2019-03-01T02:20:54.734Z,3.90
2019-03-01T02:22:58.531Z,3.90
2019-03-01T02:25:02.402Z,3.30
2019-03-01T02:27:21.913Z,4.57
2019-03-01T02:29:25.777Z,4.27
2019-03-01T02:31:29.871Z,4.13
2019-03-01T02:33:33.673Z,4.43
2019-03-01T02:35:37.725Z,4.47
2019-03-01T02:37:41.479Z,4.43
2019-03-01T02:39:47.384Z,4.30
2019-03-01T02:41:51.377Z,4.23
2019-03-01T02:43:55.251Z,3.90
2019-03-01T02:45:58.971Z,4.57
2019-03-01T02:48:02.831Z,4.80
2019-03-01T02:50:09.236Z,4.90
2019-03-01T02:52:13.343Z,4.10
2019-03-01T02:54:17.430Z,5.00
2019-03-01T02:56:21.316Z,4.93
2019-03-01T02:58:26.199Z,4.73
2019-03-01T03:00:31.370Z,4.53
2019-03-01T03:02:36.309Z,4.70
2019-03-01T03:04:40.091Z,4.43
2019-03-01T03:06:48.856Z,4.20
2019-03-01T03:08:52.667Z,5.00
2019-03-01T03:10:56.563Z,4.73
2019-03-01T03:13:03.045Z,4.43
2019-03-01T03:15:09.374Z,4.40
2019-03-01T03:17:13.185Z,4.23
2019-03-01T03:19:16.862Z,4.00
2019-03-01T03:21:20.689Z,4.20
2019-03-01T03:23:24.421Z,4.20
2019-03-01T03:25:28.348Z,4.20
2019-03-01T03:27:32.257Z,4.40
2019-03-01T03:29:36.034Z,4.00
2019-03-01T03:31:39.771Z,4.60
2019-03-01T03:33:43.448Z,4.40
2019-03-01T03:35:47.795Z,4.90
2019-03-01T03:37:51.500Z,4.93
2019-03-01T03:39:56.381Z,5.50
2019-03-01T03:42:00.186Z,4.40
2019-03-01T03:44:03.902Z,4.60
2019-03-01T03:46:08.025Z,5.63
2019-03-01T03:48:11.832Z,5.57
2019-03-01T03:50:16.176Z,5.13
2019-03-01T03:52:20.143Z,5.27
2019-03-01T03:54:23.861Z,6.40
2019-03-01T03:56:27.615Z,5.60
2019-03-01T03:58:31.933Z,4.80
2019-03-01T04:00:35.823Z,6.27
2019-03-01T04:02:39.605Z,6.40
2019-03-01T04:04:43.376Z,4.80
2019-03-01T04:06:47.227Z,6.20
2019-03-01T04:08:51.061Z,5.80
2019-03-01T04:10:54.860Z,6.40
2019-03-01T04:12:58.770Z,7.13
2019-03-01T04:15:02.832Z,7.17
2019-03-01T04:17:06.650Z,6.20
2019-03-01T04:19:10.456Z,7.10
2019-03-01T04:21:14.047Z,6.77
2019-03-01T04:23:17.737Z,7.00
2019-03-01T04:25:21.478Z,6.53
2019-03-01T04:27:25.473Z,6.30
2019-03-01T04:29:29.335Z,6.40
2019-03-01T04:31:33.107Z,6.43
2019-03-01T04:33:36.837Z,5.93
2019-03-01T04:35:41.699Z,6.03
2019-03-01T04:37:45.703Z,6.57
2019-03-01T04:39:49.565Z,6.37
2019-03-01T04:41:53.470Z,6.60
2019-03-01T04:43:57.389Z,5.17
2019-03-01T04:46:01.309Z,6.53
2019-03-01T04:48:05.274Z,6.73
2019-03-01T04:50:10.780Z,5.60
2019-03-01T04:52:26.436Z,6.07
2019-03-01T04:54:30.538Z,5.40
2019-03-01T04:56:34.547Z,5.37
2019-03-01T04:58:38.532Z,5.13
2019-03-01T05:00:42.310Z,5.70
2019-03-01T05:02:46.234Z,5.80
2019-03-01T05:04:50.154Z,5.33
2019-03-01T05:06:54.061Z,5.20
2019-03-01T05:08:57.858Z,4.50
2019-03-01T05:11:01.558Z,5.13
2019-03-01T05:13:05.770Z,5.20
2019-03-01T05:15:14.500Z,3.90
2019-03-01T05:17:17.976Z,5.53
2019-03-01T05:19:22.707Z,5.13
2019-03-01T05:21:26.498Z,5.03
2019-03-01T05:23:30.363Z,5.10
2019-03-01T05:25:34.162Z,4.57
2019-03-01T05:27:38.003Z,5.83
2019-03-01T05:29:41.765Z,6.73
2019-03-01T05:31:46.455Z,6.93
2019-03-01T05:33:50.324Z,5.50
2019-03-01T05:35:54.329Z,4.70
2019-03-01T05:37:58.433Z,6.80
2019-03-01T05:40:02.240Z,6.90
2019-03-01T05:42:05.912Z,5.37
2019-03-01T05:44:09.801Z,4.40
2019-03-01T05:46:13.527Z,5.23
2019-03-01T05:48:17.511Z,5.07
2019-03-01T05:50:21.232Z,4.27
2019-03-01T05:52:25.125Z,4.60
2019-03-01T05:54:28.948Z,5.30
2019-03-01T05:56:32.740Z,4.40
2019-03-01T05:58:37.566Z,4.43
2019-03-01T06:00:41.449Z,4.60
2019-03-01T06:02:53.912Z,4.97
2019-03-01T06:04:59.177Z,4.80
2019-03-01T06:07:14.888Z,4.90
2019-03-01T06:09:27.805Z,4.77
2019-03-01T06:11:41.230Z,4.97
2019-03-01T06:13:57.071Z,4.77
2019-03-01T06:16:21.797Z,3.70
2019-03-01T06:18:45.134Z,4.40
2019-03-01T06:21:10.973Z,4.30
2019-03-01T06:23:17.750Z,4.10
2019-03-01T06:25:37.321Z,4.43
2019-03-01T06:27:52.791Z,4.03
2019-03-01T06:30:02.295Z,3.90
2019-03-01T06:32:24.762Z,4.27
2019-03-01T06:34:58.028Z,4.73
2019-03-01T06:37:07.388Z,3.70
2019-03-01T06:39:30.750Z,3.70
2019-03-01T06:41:46.689Z,4.30
2019-03-01T06:44:09.867Z,4.17
2019-03-01T06:46:26.947Z,4.23
2019-03-01T06:48:32.535Z,4.80
2019-03-01T06:50:38.185Z,4.57
2019-03-01T06:52:42.151Z,4.87
2019-03-01T06:54:45.949Z,5.43
2019-03-01T06:56:49.773Z,6.57
2019-03-01T06:58:54.087Z,6.00
2019-03-01T07:00:59.786Z,5.80
2019-03-01T07:03:04.053Z,5.10
2019-03-01T07:05:07.953Z,6.53
2019-03-01T07:07:11.662Z,4.53
2019-03-01T07:09:15.452Z,5.50
2019-03-01T07:11:19.214Z,5.40
2019-03-01T07:13:23.258Z,5.10
2019-03-01T07:15:27.091Z,4.53
2019-03-01T07:17:30.784Z,3.40
2019-03-01T07:19:34.592Z,3.70
2019-03-01T07:21:38.390Z,3.30
2019-03-01T07:23:42.268Z,4.70
2019-03-01T07:25:47.007Z,3.40
2019-03-01T07:27:50.742Z,3.20
2019-03-01T07:29:54.657Z,2.80
2019-03-01T07:31:58.629Z,2.90
2019-03-01T07:34:02.494Z,2.83
2019-03-01T07:36:06.281Z,2.53
2019-03-01T07:38:10.008Z,2.37
2019-03-01T07:40:13.895Z,2.60
2019-03-01T07:42:17.670Z,3.37
2019-03-01T07:44:21.457Z,2.13
2019-03-01T07:46:25.309Z,2.27
2019-03-01T07:48:29.019Z,2.30
2019-03-01T07:50:32.866Z,2.30
2019-03-01T07:52:36.804Z,2.60
2019-03-01T07:54:40.722Z,1.93
2019-03-01T07:56:44.611Z,2.70
2019-03-01T07:58:48.405Z,3.10
2019-03-01T08:00:53.619Z,3.03
2019-03-01T08:02:57.814Z,2.70
2019-03-01T08:05:04.208Z,3.17
2019-03-01T08:07:06.989Z,3.27
2019-03-01T08:09:12.470Z,5.40
2019-03-01T08:11:16.374Z,3.50
2019-03-01T08:13:20.137Z,3.80
2019-03-01T08:17:50.282Z,3.30
2019-03-01T08:19:54.883Z,3.70
2019-03-01T08:21:59.573Z,4.97
2019-03-01T08:24:03.394Z,5.20
2019-03-01T08:26:08.461Z,4.40
2019-03-01T08:28:13.575Z,3.80
2019-03-01T08:30:20.230Z,4.13
2019-03-01T08:32:27.439Z,3.27
2019-03-01T08:34:29.779Z,4.20
2019-03-01T08:36:33.680Z,4.30
2019-03-01T08:38:38.523Z,4.20
2019-03-01T08:40:46.517Z,3.90
2019-03-01T08:42:51.087Z,4.70
2019-03-01T08:44:58.083Z,4.30
2019-03-01T08:47:02.761Z,3.87
2019-03-01T08:49:10.601Z,5.20
2019-03-01T08:51:13.995Z,4.67
2019-03-01T08:53:19.227Z,4.03
2019-03-01T08:55:29.159Z,4.60
2019-03-01T08:57:43.762Z,4.80
2019-03-01T08:59:40.764Z,3.90
2019-03-01T09:01:45.814Z,4.30
2019-03-01T09:03:59.229Z,4.60
2019-03-01T09:06:03.755Z,4.17
2019-03-01T09:08:08.104Z,4.20
2019-03-01T09:10:14.937Z,4.10
2019-03-01T09:12:20.694Z,4.07
2019-03-01T09:14:26.328Z,3.63
2019-03-01T09:16:31.731Z,4.60
2019-03-01T09:18:36.321Z,3.30
2019-03-01T09:20:42.093Z,3.70
2019-03-01T09:22:46.446Z,4.07
2019-03-01T09:24:50.971Z,3.87
2019-03-01T09:26:55.914Z,4.20
2019-03-01T09:29:01.167Z,5.10
2019-03-01T09:31:06.100Z,4.90
2019-03-01T09:33:10.912Z,4.50
2019-03-01T09:35:39.646Z,5.17
2019-03-01T09:37:44.101Z,4.30
2019-03-01T09:39:50.453Z,4.27
2019-03-01T09:42:03.020Z,4.13
2019-03-01T09:44:03.039Z,4.30
2019-03-01T09:46:08.383Z,4.70
2019-03-01T09:48:13.797Z,4.70
2019-03-01T09:50:45.248Z,3.73
2019-03-01T09:52:40.685Z,3.77
2019-03-01T09:54:45.115Z,3.73
2019-03-01T09:56:50.333Z,2.90
2019-03-01T09:58:55.170Z,2.50
2019-03-01T10:01:05.900Z,2.80
2019-03-01T10:03:10.149Z,2.50
2019-03-01T10:05:14.980Z,2.83
2019-03-01T10:07:19.280Z,2.87
2019-03-01T10:09:23.465Z,2.70
2019-03-01T10:11:28.021Z,3.40
2019-03-01T10:15:36.608Z,4.47
2019-03-01T10:17:40.704Z,3.83
2019-03-01T10:19:45.468Z,4.60
2019-03-01T10:21:50.743Z,5.67
2019-03-01T10:23:54.682Z,4.30
2019-03-01T10:25:59.949Z,3.07
2019-03-01T10:28:04.404Z,4.03
2019-03-01T10:30:17.987Z,3.30
2019-03-01T10:32:22.883Z,3.37
2019-03-01T10:34:28.951Z,2.73
2019-03-01T10:36:34.099Z,2.93
2019-03-01T10:38:38.639Z,2.90
2019-03-01T10:41:09.185Z,3.13
2019-03-01T10:43:12.824Z,2.87
2019-03-01T10:45:20.272Z,2.77
2019-03-01T10:47:25.631Z,2.77
2019-03-01T10:49:37.245Z,2.87
2019-03-01T10:51:42.548Z,2.90
2019-03-01T10:53:48.731Z,2.50
2019-03-01T10:55:53.610Z,3.50
2019-03-01T10:57:57.737Z,3.80
2019-03-01T11:00:02.004Z,3.63
2019-03-01T11:02:06.466Z,3.63
2019-03-01T11:04:12.449Z,4.37
2019-03-01T11:06:16.939Z,4.27
2019-03-01T11:08:21.165Z,4.57
2019-03-01T11:10:30.585Z,5.23
2019-03-01T11:12:35.014Z,5.20
2019-03-01T11:14:38.800Z,5.43
2019-03-01T11:16:42.774Z,5.77
2019-03-01T11:18:46.697Z,5.87
2019-03-01T11:20:50.675Z,6.13
2019-03-01T11:22:54.928Z,6.30
2019-03-01T11:24:58.703Z,6.70
2019-03-01T11:27:10.124Z,6.20
2019-03-01T11:29:08.261Z,6.30
2019-03-01T11:31:12.471Z,6.73
2019-03-01T11:33:16.392Z,7.30
2019-03-01T11:35:20.177Z,7.77
2019-03-01T11:37:24.039Z,7.60
2019-03-01T11:39:27.840Z,8.80
2019-03-01T11:41:31.679Z,7.33
2019-03-01T11:43:35.681Z,8.03
2019-03-01T11:45:40.151Z,7.17
2019-03-01T11:47:45.213Z,7.70
2019-03-01T11:49:49.879Z,7.70
2019-03-01T11:51:54.253Z,7.77
2019-03-01T11:54:00.217Z,7.73
2019-03-01T11:56:29.503Z,7.53
2019-03-01T11:58:47.545Z,7.90
2019-03-01T12:00:52.297Z,8.33
2019-03-01T12:02:56.581Z,8.47
2019-03-01T12:05:00.323Z,7.93
2019-03-01T12:07:04.039Z,7.97
2019-03-01T12:09:08.255Z,7.10
2019-03-01T12:11:12.249Z,8.03
2019-03-01T12:13:16.086Z,7.70
2019-03-01T12:15:19.894Z,9.13
2019-03-01T12:17:23.744Z,9.87
2019-03-01T12:19:27.505Z,8.90
2019-03-01T12:21:31.498Z,10.37
2019-03-01T12:23:35.197Z,10.40
2019-03-01T12:25:38.986Z,12.23
2019-03-01T12:27:42.881Z,12.03
2019-03-01T12:29:46.673Z,10.37
2019-03-01T12:31:50.504Z,10.23
2019-03-01T12:33:54.207Z,10.60
2019-03-01T12:35:58.565Z,10.20
2019-03-01T12:38:05.293Z,8.27
2019-03-01T12:40:12.510Z,9.03
2019-03-01T12:42:16.229Z,10.23
2019-03-01T12:44:20.008Z,9.73
2019-03-01T12:46:26.814Z,10.30
2019-03-01T12:48:31.436Z,9.60
2019-03-01T12:50:36.306Z,9.07
2019-03-01T12:52:40.492Z,9.40
2019-03-01T12:54:46.334Z,9.70
2019-03-01T12:56:50.563Z,10.23
2019-03-01T12:58:54.863Z,9.87
2019-03-01T13:00:59.329Z,12.77
2019-03-01T13:03:05.435Z,11.30
2019-03-01T13:05:11.299Z,12.13
2019-03-01T13:07:15.351Z,10.60
2019-03-01T13:09:19.560Z,11.60
2019-03-01T13:11:23.524Z,12.57
2019-03-01T13:13:27.344Z,13.00
2019-03-01T13:15:31.402Z,13.53
2019-03-01T13:17:37.218Z,12.70
2019-03-01T13:19:40.847Z,13.73
2019-03-01T13:21:45.603Z,14.67
2019-03-01T13:23:50.087Z,13.23
2019-03-01T13:25:53.891Z,14.80
2019-03-01T13:27:57.730Z,13.67
2019-03-01T13:30:01.519Z,15.20
2019-03-01T13:32:06.354Z,15.93
2019-03-01T13:34:10.565Z,16.53
2019-03-01T13:36:15.575Z,16.13
2019-03-01T13:38:19.275Z,15.43
2019-03-01T13:40:24.400Z,15.67
2019-03-01T13:42:30.174Z,14.27
2019-03-01T13:44:36.164Z,13.87
2019-03-01T13:46:39.695Z,13.83
2019-03-01T13:48:43.399Z,13.73
2019-03-01T13:50:47.252Z,12.53
2019-03-01T13:52:51.069Z,11.60
2019-03-01T13:54:55.761Z,14.03
2019-03-01T13:56:59.598Z,11.93
2019-03-01T13:59:03.979Z,12.10
2019-03-01T14:01:08.989Z,11.97
2019-03-01T14:03:12.737Z,11.90
2019-03-01T14:05:17.449Z,11.33
2019-03-01T14:07:21.332Z,11.20
2019-03-01T14:09:27.020Z,13.13
2019-03-01T14:11:30.575Z,13.67
2019-03-01T14:13:34.342Z,15.47
2019-03-01T14:15:39.678Z,15.67
2019-03-01T14:17:43.746Z,16.00
2019-03-01T14:19:47.600Z,17.03
2019-03-01T14:21:51.302Z,18.90
2019-03-01T14:23:54.962Z,17.73
2019-03-01T14:25:58.904Z,19.70
2019-03-01T14:28:05.176Z,22.50
2019-03-01T14:30:19.556Z,22.20
2019-03-01T14:32:23.351Z,27.27
2019-03-01T14:34:27.357Z,27.20
2019-03-01T14:36:31.250Z,26.50
2019-03-01T14:38:35.382Z,30.13
2019-03-01T14:40:39.172Z,29.27
2019-03-01T14:42:46.490Z,34.87
2019-03-01T14:44:48.273Z,38.10
2019-03-01T14:46:52.994Z,34.93
2019-03-01T14:48:57.725Z,36.27
2019-03-01T14:51:01.627Z,31.23
2019-03-01T14:53:05.427Z,33.97
2019-03-01T14:55:12.753Z,29.30
2019-03-01T14:57:19.527Z,32.47
2019-03-01T14:59:26.347Z,29.70
2019-03-01T15:01:51.476Z,31.10
2019-03-01T15:03:55.167Z,29.17
2019-03-01T15:05:59.001Z,27.93
2019-03-01T15:08:03.212Z,27.60
2019-03-01T15:10:11.081Z,28.03
2019-03-01T15:12:19.823Z,26.70
2019-03-01T15:14:20.546Z,26.53
2019-03-01T15:16:24.614Z,27.90
2019-03-01T15:18:29.017Z,27.03
2019-03-01T15:20:34.693Z,24.07
2019-03-01T15:22:38.968Z,26.77
2019-03-01T15:24:42.878Z,24.80
2019-03-01T15:26:48.021Z,25.07
2019-03-01T15:28:55.681Z,22.93
2019-03-01T15:31:00.463Z,21.80
2019-03-01T15:33:04.457Z,23.27
2019-03-01T15:35:08.691Z,22.57
2019-03-01T15:37:12.416Z,21.57
2019-03-01T15:39:16.807Z,22.63
2019-03-01T15:41:22.078Z,21.93
2019-03-01T15:43:26.376Z,20.90
2019-03-01T15:45:32.490Z,21.80
2019-03-01T15:47:36.587Z,20.60
2019-03-01T15:49:40.803Z,19.57
2019-03-01T15:51:47.135Z,21.47
2019-03-01T15:54:01.010Z,20.50
2019-03-01T15:56:33.210Z,22.27
2019-03-01T15:58:36.610Z,22.93
2019-03-01T16:00:54.559Z,19.30
2019-03-01T16:02:58.335Z,18.00
2019-03-01T16:05:01.913Z,19.23
2019-03-01T16:07:06.401Z,18.97
2019-03-01T16:09:13.335Z,19.00
2019-03-01T16:11:17.696Z,18.17
2019-03-01T16:13:21.574Z,17.27
2019-03-01T16:15:25.468Z,15.87
2019-03-01T16:17:29.517Z,17.90
2019-03-01T16:19:33.382Z,16.60
2019-03-01T16:21:39.805Z,16.00
2019-03-01T16:23:42.726Z,16.00
2019-03-01T16:25:46.842Z,16.50
2019-03-01T16:27:50.802Z,18.73
2019-03-01T16:29:56.860Z,21.37
2019-03-01T16:32:01.262Z,20.77
2019-03-01T16:34:05.642Z,18.50
2019-03-01T16:36:11.272Z,18.73
2019-03-01T16:38:16.121Z,19.87
2019-03-01T16:40:20.060Z,18.60
2019-03-01T16:42:24.099Z,18.47
2019-03-01T16:44:27.857Z,17.90
2019-03-01T16:46:32.180Z,18.53
2019-03-01T16:48:36.067Z,17.60
2019-03-01T16:50:40.678Z,16.37
2019-03-01T16:52:45.228Z,17.10
2019-03-01T16:54:51.502Z,17.30
2019-03-01T16:56:54.804Z,18.23
2019-03-01T16:59:00.407Z,17.27
2019-03-01T17:01:03.976Z,17.50
2019-03-01T17:03:09.972Z,16.60
2019-03-01T17:05:14.054Z,17.67
2019-03-01T17:07:17.883Z,16.43
2019-03-01T17:09:21.723Z,17.07
2019-03-01T17:11:25.607Z,16.57
2019-03-01T17:13:29.554Z,16.67
2019-03-01T17:15:34.129Z,16.87
2019-03-01T17:17:37.896Z,17.30
2019-03-01T17:19:41.802Z,16.90
2019-03-01T17:21:50.567Z,18.90
2019-03-01T17:23:52.063Z,16.70
2019-03-01T17:25:57.622Z,17.17
2019-03-01T17:28:01.539Z,17.43
2019-03-01T17:30:14.308Z,16.40
2019-03-01T17:32:17.138Z,17.50
2019-03-01T17:34:21.835Z,17.43
2019-03-01T17:36:26.469Z,18.80
2019-03-01T17:38:30.181Z,18.07
2019-03-01T17:40:35.811Z,16.70
2019-03-01T17:42:42.748Z,16.53
2019-03-01T17:44:47.222Z,18.13
2019-03-01T17:46:50.901Z,16.27
2019-03-01T17:48:57.429Z,18.20
2019-03-01T17:51:00.193Z,16.97
2019-03-01T17:53:06.071Z,18.00
2019-03-01T17:55:18.805Z,15.13
2019-03-01T17:57:22.593Z,16.03
2019-03-01T17:59:28.181Z,15.73
2019-03-01T18:01:32.245Z,17.17
2019-03-01T18:03:39.336Z,15.27
2019-03-01T18:05:43.739Z,15.07
2019-03-01T18:07:49.075Z,16.40
2019-03-01T18:09:55.262Z,15.20
2019-03-01T18:11:59.389Z,15.80
2019-03-01T18:14:05.576Z,16.50
2019-03-01T18:16:09.415Z,14.40
2019-03-01T18:18:13.306Z,16.87
2019-03-01T18:20:17.218Z,18.10
2019-03-01T18:22:22.934Z,22.07
2019-03-01T18:24:26.454Z,17.13
2019-03-01T18:26:31.565Z,16.23
2019-03-01T18:28:35.447Z,16.40
2019-03-01T18:30:40.571Z,16.17
2019-03-01T18:32:45.148Z,16.23
2019-03-01T18:34:49.920Z,16.70
2019-03-01T18:36:54.683Z,18.37
2019-03-01T18:39:00.139Z,16.20
2019-03-01T18:41:03.934Z,15.40
2019-03-01T18:43:13.074Z,16.53
2019-03-01T18:45:26.977Z,16.30
2019-03-01T18:47:31.526Z,15.77
2019-03-01T18:49:35.505Z,15.00
2019-03-01T18:51:42.337Z,16.30
2019-03-01T18:53:45.581Z,14.80
2019-03-01T18:55:49.615Z,15.67
2019-03-01T18:57:54.929Z,14.80
2019-03-01T18:59:59.855Z,14.97
2019-03-01T19:02:04.068Z,15.33
2019-03-01T19:04:07.728Z,13.43
2019-03-01T19:06:12.952Z,14.60
2019-03-01T19:08:17.892Z,17.07
2019-03-01T19:10:23.981Z,15.73
2019-03-01T19:12:29.041Z,15.40
2019-03-01T19:14:35.498Z,13.63
2019-03-01T19:16:38.502Z,15.53
2019-03-01T19:18:42.521Z,16.33
2019-03-01T19:20:48.823Z,14.53
2019-03-01T19:22:52.791Z,15.90
2019-03-01T19:24:56.587Z,16.03
2019-03-01T19:27:00.503Z,15.13
2019-03-01T19:29:04.313Z,15.90
2019-03-01T19:31:08.050Z,15.97
2019-03-01T19:33:11.869Z,15.83
2019-03-01T19:35:15.619Z,19.30
2019-03-01T19:37:19.398Z,18.90
2019-03-01T19:39:23.154Z,17.70
2019-03-01T19:41:27.092Z,18.13
2019-03-01T19:43:30.843Z,19.67
2019-03-01T19:45:37.525Z,16.83
2019-03-01T19:47:40.133Z,17.80
2019-03-01T19:49:45.234Z,17.60
2019-03-01T19:51:49.643Z,16.40
2019-03-01T19:53:57.325Z,16.87
2019-03-01T19:56:00.671Z,18.53
2019-03-01T19:58:04.518Z,17.93
2019-03-01T20:00:32.591Z,18.13
2019-03-01T20:02:52.109Z,18.83
2019-03-01T20:04:56.527Z,17.40
2019-03-01T20:07:01.396Z,17.20
2019-03-01T20:09:08.418Z,18.80
2019-03-01T20:11:12.215Z,15.83
2019-03-01T20:13:16.455Z,16.70
2019-03-01T20:15:25.878Z,14.70
2019-03-01T20:17:33.510Z,16.97
2019-03-01T20:19:40.495Z,16.90
2019-03-01T20:21:44.893Z,14.73
2019-03-01T20:23:48.835Z,15.53
2019-03-01T20:25:52.652Z,16.40
2019-03-01T20:27:56.573Z,15.00
2019-03-01T20:30:00.301Z,16.90
2019-03-01T20:32:04.480Z,16.80
2019-03-01T20:34:08.356Z,16.07
2019-03-01T20:36:13.846Z,13.93
2019-03-01T20:38:17.521Z,15.97
2019-03-01T20:40:22.907Z,16.23
2019-03-01T20:42:26.951Z,14.67
2019-03-01T20:44:30.940Z,15.40
2019-03-01T20:46:34.642Z,15.30
2019-03-01T20:48:38.849Z,14.90
2019-03-01T20:50:42.717Z,15.73
2019-03-01T20:52:46.473Z,14.13
2019-03-01T20:54:50.324Z,15.07
2019-03-01T20:56:54.084Z,16.83
2019-03-01T20:58:57.770Z,13.90
2019-03-01T21:01:02.959Z,12.97
2019-03-01T21:03:06.922Z,14.70
2019-03-01T21:05:12.829Z,14.57
2019-03-01T21:07:16.641Z,14.73
2019-03-01T21:09:20.543Z,14.57
2019-03-01T21:11:25.405Z,13.30
2019-03-01T21:13:29.741Z,15.30
2019-03-01T21:15:34.555Z,13.33
2019-03-01T21:17:39.225Z,14.93
2019-03-01T21:19:43.729Z,13.47
2019-03-01T21:21:48.820Z,15.33
2019-03-01T21:23:52.524Z,13.43
2019-03-01T21:25:56.267Z,13.43
2019-03-01T21:28:00.944Z,13.47
2019-03-01T21:30:11.478Z,14.23
2019-03-01T21:32:15.504Z,14.20
2019-03-01T21:34:19.446Z,13.20
2019-03-01T21:36:26.220Z,13.00
2019-03-01T21:38:28.657Z,13.73
2019-03-01T21:40:34.669Z,13.93
2019-03-01T21:42:38.122Z,13.80
2019-03-01T21:44:42.584Z,14.53
2019-03-01T21:46:47.651Z,14.67
2019-03-01T21:48:51.556Z,14.03
2019-03-01T21:50:55.564Z,13.87
2019-03-01T21:53:01.744Z,15.23
2019-03-01T21:55:07.355Z,14.00
2019-03-01T21:57:11.501Z,14.50
2019-03-01T21:59:17.292Z,14.20
2019-03-01T22:01:20.638Z,14.50
2019-03-01T22:03:24.866Z,13.87
2019-03-01T22:05:29.851Z,13.43
2019-03-01T22:07:37.078Z,16.80
2019-03-01T22:09:39.456Z,14.63
2019-03-01T22:11:45.873Z,14.37
2019-03-01T22:13:48.637Z,14.60
2019-03-01T22:15:52.349Z,14.13
2019-03-01T22:17:56.333Z,14.27
2019-03-01T22:20:00.319Z,13.57
2019-03-01T22:22:04.061Z,14.53
2019-03-01T22:24:08.174Z,14.43
2019-03-01T22:26:13.679Z,16.00
2019-03-01T22:28:17.515Z,16.50
2019-03-01T22:30:33.961Z,15.83
2019-03-01T22:32:51.503Z,15.20
2019-03-01T22:34:55.440Z,15.87
2019-03-01T22:36:59.231Z,16.50
2019-03-01T22:39:03.010Z,15.60
2019-03-01T22:41:06.844Z,15.70
2019-03-01T22:43:10.615Z,16.20
2019-03-01T22:45:16.663Z,17.00
2019-03-01T22:47:20.422Z,15.40
2019-03-01T22:49:24.145Z,17.67
2019-03-01T22:51:27.982Z,17.43
2019-03-01T22:53:31.602Z,17.37
2019-03-01T22:55:36.754Z,16.30
2019-03-01T22:57:40.709Z,18.07
2019-03-01T22:59:47.286Z,17.10
2019-03-01T23:01:49.870Z,18.10
2019-03-01T23:03:55.697Z,17.10
2019-03-01T23:05:59.725Z,17.30
2019-03-01T23:08:03.720Z,16.70
2019-03-01T23:10:09.893Z,16.90
2019-03-01T23:12:14.810Z,16.57
2019-03-01T23:14:19.014Z,17.30
2019-03-01T23:16:22.884Z,18.90
2019-03-01T23:18:26.720Z,18.10
2019-03-01T23:20:30.556Z,16.83
2019-03-01T23:22:34.528Z,17.37
2019-03-01T23:24:38.235Z,18.10
2019-03-01T23:26:41.955Z,18.00
2019-03-01T23:28:45.699Z,18.63
2019-03-01T23:30:49.488Z,19.23
2019-03-01T23:32:55.875Z,17.43
2019-03-01T23:34:59.875Z,18.77
2019-03-01T23:37:04.458Z,17.23
2019-03-01T23:39:08.429Z,17.13
2019-03-01T23:41:12.714Z,17.80
2019-03-01T23:43:16.589Z,16.77
2019-03-01T23:45:20.524Z,17.03
2019-03-01T23:47:24.286Z,18.37
2019-03-01T23:49:28.026Z,18.07
2019-03-01T23:51:31.985Z,18.50
2019-03-01T23:53:35.827Z,17.50
2019-03-01T23:55:39.635Z,19.07
2019-03-01T23:57:43.517Z,18.20
2019-03-01T23:59:47.398Z,17.60
